Taurus — 2CPB4 — position and weather

sailwx.info

Track history (hours):
 
Tides and Currents Weather Stations Pressure Air Temp Water Temp Dewpoint Dewpoint Depression Visibility Wind Speed Wind Dir Waves Ship Positions

Taurus

Last reported at 2015-May-26 09:32 UTC. Time now 2015-May-26 09:47 UTC.
Position N 36°23' E 123°44'.

Length 292 m; draft 18.2 m.

Type: Cargo ship. MMSI: 235074621.

Date/timePositionNaut miles runAvg speedWind from/ knotsBaromVisibWave heightAir tempDewpointWater temp
2015-May-26 09:32N 36°23' E 123°44'9 9.2
2015-May-26 08:31N 36°14' E 123°47'18 9.2
2015-May-26 06:32N 35°56' E 123°51'12 9.3
2015-May-26 05:16N 35°45' E 123°53'16 9.1
2015-May-26 03:31N 35°29' E 123°57'9 8.8
2015-May-26 02:31N 35°20' E 123°59'1010.0
2015-May-26 01:30N 35°10' E 124°01'3711.0
2015-May-25 22:07N 34°34' E 124°09'6 9.5
2015-May-25 21:32N 34°28' E 124°10'9 9.4
2015-May-25 20:33N 34°19' E 124°12'9 9.3
2015-May-25 19:33N 34°10' E 124°13'10 9.3
2015-May-25 18:26N 33°60' E 124°16'10 9.3
2015-May-25 17:25N 33°51' E 124°18'9 9.3
2015-May-25 16:24N 33°41' E 124°21'8 9.4
2015-May-25 15:32N 33°34' E 124°24'9 9.3
2015-May-25 14:33N 33°25' E 124°26'9 9.3
2015-May-25 13:33N 33°16' E 124°29'10 9.3
2015-May-25 12:30N 33°06' E 124°31'12 9.3
2015-May-25 11:15N 32°55' E 124°35'7 9.2
2015-May-25 10:32N 32°48' E 124°36'12 9.2
2015-May-25 09:12N 32°37' E 124°40'7 9.3
2015-May-25 08:29N 32°30' E 124°42'9 9.3
2015-May-25 07:33N 32°22' E 124°44'12 9.6
2015-May-25 06:19N 32°10' E 124°47'18 9.3
2015-May-25 04:25N 31°53' E 124°50'181 9.6
2015-May-24 09:32N 28°55' E 124°14'  
Track history (hours):
 
Tides and Currents Weather Stations Pressure Air Temp Water Temp Dewpoint Dewpoint Depression Visibility Wind Speed Wind Dir Waves Ship Positions

Taurus

Last reported at 2015-May-26 09:32 UTC. Time now 2015-May-26 09:47 UTC.
Position N 36°23' E 123°44'.

Length 292 m; draft 18.2 m.

Type: Cargo ship. MMSI: 235074621.

Date/timePositionNaut miles runAvg speedWind from/ knotsBaromVisibWave heightAir tempDewpointWater temp
2015-May-26 09:32N 36°23' E 123°44'9 9.2
2015-May-26 08:31N 36°14' E 123°47'18 9.2
2015-May-26 06:32N 35°56' E 123°51'12 9.3
2015-May-26 05:16N 35°45' E 123°53'16 9.1
2015-May-26 03:31N 35°29' E 123°57'9 8.8
2015-May-26 02:31N 35°20' E 123°59'1010.0
2015-May-26 01:30N 35°10' E 124°01'3711.0
2015-May-25 22:07N 34°34' E 124°09'6 9.5
2015-May-25 21:32N 34°28' E 124°10'9 9.4
2015-May-25 20:33N 34°19' E 124°12'9 9.3
2015-May-25 19:33N 34°10' E 124°13'10 9.3
2015-May-25 18:26N 33°60' E 124°16'10 9.3
2015-May-25 17:25N 33°51' E 124°18'9 9.3
2015-May-25 16:24N 33°41' E 124°21'8 9.4
2015-May-25 15:32N 33°34' E 124°24'9 9.3
2015-May-25 14:33N 33°25' E 124°26'9 9.3
2015-May-25 13:33N 33°16' E 124°29'10 9.3
2015-May-25 12:30N 33°06' E 124°31'12 9.3
2015-May-25 11:15N 32°55' E 124°35'7 9.2
2015-May-25 10:32N 32°48' E 124°36'12 9.2
2015-May-25 09:12N 32°37' E 124°40'7 9.3
2015-May-25 08:29N 32°30' E 124°42'9 9.3
2015-May-25 07:33N 32°22' E 124°44'12 9.6
2015-May-25 06:19N 32°10' E 124°47'18 9.3
2015-May-25 04:25N 31°53' E 124°50'181 9.6
2015-May-24 09:32N 28°55' E 124°14'  

Dump ship's entire track history